Welcome to the updated website with new and more accurate equipment. Established 2007


Active alerts


No alerts

Mount Mesnard more information Mount Mesnard


Lower Harbor more information Lower Harbor


Visit our other weather sites:

Template documentation
and downloads

And another site


CBI


Nearby METAR Reports

   
KSAW - Sawyer, Michigan
Updated: 18-12-2017 01:38
Mist, Clear  
Mist, Clear  
   Wind: SW 3.5 mph
Wind: SW 3.5 mph
Temperature: 23°F
Wind Chill: 17.6°F
Dew Point: 23°F
Humidity: 100%
Barometer: 29.85 inHg
Clouds: Clear
Visibility: 5 mi
Cloud details: Clear
KSAW 180638Z AUTO 22003KT 5SM BR CLR M05/M05 A2985 RMK AO2 T10501052
KESC - Escanaba, Michigan
Updated: 18-12-2017 01:52
Mist, Overcast  
Mist, Overcast  
   Wind: Calm
Wind: Calm
Temperature: 28.4°F
Dew Point: 26.6°F
Humidity: 93%
Barometer: 29.9 inHg
Clouds: Overcast
Visibility: 6 mi
Cloud details: Few Clouds 274 m,
Mostly Cloudy 488 m,
Overcast 2438 m
KESC 180652Z AUTO 00000KT 6SM BR FEW009 BKN016 OVC080 M02/M03 A2990 RMK AO2 FZRANO
KIMT - Iron Mountain, MI
Updated: 18-12-2017 01:40
Overcast  
Overcast  
   Wind: Calm
Wind: Calm
Temperature: 26.6°F
Dew Point: 23°F
Humidity: 86%
Barometer: 29.85 inHg
Clouds: Overcast
Visibility: 7 mi
Cloud details: Overcast 274 m
KIMT 180640Z AUTO 00000KT 7SM OVC009 M03/M05 A2985 RMK AO2 T10281050
KGRB - Green Bay, WI
Updated: 18-12-2017 01:26
Mist, Overcast  
Mist, Overcast  
   Wind: West 3.5 mph
Wind: West 3.5 mph
Temperature: 30.2°F
Wind Chill: 26.6°F
Dew Point: 26.6°F
Humidity: 86%
Barometer: 29.92 inHg
Clouds: Overcast
Visibility: 3 mi
Cloud details: Overcast 91 m
KGRB 180626Z 28003KT 3/4SM BR VV003 M01/M03 A2992 RMK AO2 T10111028 RVRNO
KDET - Detroit, MI
Updated: 18-12-2017 01:53
Mist, Clear  
Mist, Clear  
   Wind: SW 5.8 mph
Wind: SW 5.8 mph
Temperature: 33.8°F
Wind Chill: 28.4°F
Dew Point: 32°F
Humidity: 93%
Barometer: 29.98 inHg
Clouds: Clear
Visibility: 4 mi
Cloud details: Clear
KDET 180653Z 23005KT 4SM BR CLR 01/00 A2998 RMK AO2 SLP159 I1000 T00060000
 

Script developed by  Saratoga-weather.org Adapted for the template by  Weerstation Leuven

You find our weather info also at:

Weather Underground

Midwestern Weather Network

WeatherlinkIP

Citizen Weather Observer Program (CWOP)

Equipment we use:

Weather-station
Davis VP2

Weather-program
Davis Weatherlink.Com

Davis VP2

Davis Weatherlink.Com